Time;durP1;ratioP1;P1;durP2;ratioP2;P2;SDS_P1;SDS_P2;PMS_P1;PMS_P2;Temp;Humidity;BMP_temperature;BMP_pressure;BME280_temperature;BME280_humidity;BME280_pressure;Samples;Min_cycle;Max_cycle;Signal;HPM_P1;HPM_P2
2023/03/09 00:01:20;;;;;;;27.97;13.83;;;0.90;99.90;;;;;;4804375;29;20200;-73
2023/03/09 00:03:47;;;;;;;28.17;13.90;;;0.90;99.90;;;;;;4805884;29;20200;-73
2023/03/09 00:06:14;;;;;;;27.63;13.83;;;1.00;99.90;;;;;;4804502;29;20333;-73
2023/03/09 00:08:41;;;;;;;27.63;14.37;;;0.90;99.90;;;;;;4804689;29;20215;-72
2023/03/09 00:11:08;;;;;;;29.27;14.27;;;0.90;99.90;;;;;;4804910;29;20225;-75
2023/03/09 00:13:36;;;;;;;26.57;14.17;;;0.90;99.90;;;;;;4805703;29;20207;-74
2023/03/09 00:16:13;;;;;;;27.50;13.90;;;0.80;99.90;;;;;;4804335;29;20232;-76
2023/03/09 00:18:41;;;;;;;28.07;13.70;;;0.80;99.90;;;;;;4804550;29;20239;-74
2023/03/09 00:21:14;;;;;;;27.43;13.30;;;0.80;99.90;;;;;;4804621;29;20203;-73
2023/03/09 00:23:42;;;;;;;28.87;14.60;;;0.80;99.90;;;;;;4802438;29;20233;-72
2023/03/09 00:26:09;;;;;;;27.57;13.63;;;0.80;99.90;;;;;;4787590;29;20617;-73
2023/03/09 00:28:37;;;;;;;28.37;13.83;;;0.80;99.90;;;;;;4798089;29;20322;-73
2023/03/09 00:31:06;;;;;;;25.20;13.37;;;0.80;99.90;;;;;;4804595;29;20219;-73
2023/03/09 00:33:33;;;;;;;27.40;13.73;;;0.80;99.90;;;;;;4804495;29;20214;-72
2023/03/09 00:35:59;;;;;;;27.00;13.20;;;0.80;99.90;;;;;;4803943;29;20543;-74
2023/03/09 00:38:26;;;;;;;25.70;12.50;;;0.80;99.90;;;;;;4786211;30;20690;-73
2023/03/09 00:40:53;;;;;;;26.00;13.13;;;0.70;99.90;;;;;;4786267;30;20295;-75
2023/03/09 00:43:20;;;;;;;28.03;12.90;;;0.70;99.90;;;;;;4788735;29;20208;-74
2023/03/09 00:45:47;;;;;;;25.70;12.60;;;0.70;99.90;;;;;;4785986;30;20223;-74
2023/03/09 00:48:14;;;;;;;25.40;12.83;;;0.60;99.90;;;;;;4786489;30;20226;-74
2023/03/09 00:50:40;;;;;;;26.77;12.47;;;0.60;99.90;;;;;;4785903;30;20670;-75
2023/03/09 00:53:08;;;;;;;23.53;12.33;;;0.70;99.90;;;;;;4788119;29;20607;-74
2023/03/09 00:55:34;;;;;;;25.73;11.80;;;0.70;99.90;;;;;;4798597;29;20217;-73
2023/03/09 00:58:01;;;;;;;24.27;12.23;;;0.70;99.90;;;;;;4785954;30;20326;-76
2023/03/09 01:00:30;;;;;;;27.13;13.07;;;0.70;99.90;;;;;;4786075;30;20199;-73
2023/03/09 01:02:59;;;;;;;25.50;11.93;;;0.60;99.90;;;;;;4786235;30;20670;-73
2023/03/09 01:05:26;;;;;;;23.67;11.43;;;0.70;99.90;;;;;;4785979;30;20201;-73
2023/03/09 01:07:53;;;;;;;24.93;12.03;;;0.70;99.90;;;;;;4797014;29;20218;-75
2023/03/09 01:10:21;;;;;;;24.93;12.67;;;0.70;99.90;;;;;;4789098;29;20211;-73
2023/03/09 01:12:48;;;;;;;25.30;13.00;;;0.70;99.90;;;;;;4804976;29;20214;-73
2023/03/09 01:15:15;;;;;;;24.87;12.40;;;0.70;99.90;;;;;;4792585;29;20209;-74
2023/03/09 01:17:42;;;;;;;20.70;11.07;;;0.70;99.90;;;;;;4807744;29;20204;-74
2023/03/09 01:20:10;;;;;;;21.33;11.27;;;0.70;99.90;;;;;;4803181;29;20204;-73
2023/03/09 01:22:37;;;;;;;21.43;11.53;;;0.70;99.90;;;;;;4789457;30;20204;-74
2023/03/09 01:25:05;;;;;;;21.40;10.93;;;0.70;99.90;;;;;;4801214;29;20223;-75
2023/03/09 01:27:33;;;;;;;21.70;11.40;;;0.70;99.90;;;;;;4807123;29;20243;-75
2023/03/09 01:29:59;;;;;;;23.17;11.07;;;0.60;99.90;;;;;;4793916;29;20208;-75
2023/03/09 01:32:26;;;;;;;21.17;10.40;;;0.60;99.90;;;;;;4789315;30;20569;-74
2023/03/09 01:34:53;;;;;;;20.70;10.87;;;0.70;99.90;;;;;;4793260;29;20643;-75
2023/03/09 01:37:20;;;;;;;21.43;10.63;;;0.60;99.90;;;;;;4807619;29;20235;-74
2023/03/09 01:39:47;;;;;;;20.33;10.13;;;0.60;99.90;;;;;;4808412;29;20222;-75
2023/03/09 01:42:14;;;;;;;21.17;10.43;;;0.70;99.90;;;;;;4807219;29;20215;-74
2023/03/09 01:44:41;;;;;;;21.50;11.07;;;0.70;99.90;;;;;;4808681;29;20537;-74
2023/03/09 01:47:08;;;;;;;21.87;11.10;;;0.70;99.90;;;;;;4807711;29;20233;-74
2023/03/09 01:49:45;;;;;;;20.90;10.57;;;0.70;99.90;;;;;;4792681;30;20224;-73
2023/03/09 01:52:17;;;;;;;21.20;10.30;;;0.70;99.90;;;;;;4790280;30;20212;-73
2023/03/09 01:54:59;;;;;;;21.03;9.73;;;0.60;99.90;;;;;;4793536;29;20216;-75
2023/03/09 01:57:28;;;;;;;19.03;10.13;;;0.60;99.90;;;;;;4789825;30;20564;-73
2023/03/09 01:59:59;;;;;;;22.07;10.47;;;0.60;99.90;;;;;;4802453;29;20283;-74
2023/03/09 02:02:29;;;;;;;20.10;10.20;;;0.70;99.90;;;;;;4806735;29;20192;-73
2023/03/09 02:05:00;;;;;;;19.47;9.73;;;0.70;99.90;;;;;;4789802;30;20627;-73
2023/03/09 02:07:28;;;;;;;18.57;9.60;;;0.60;99.90;;;;;;4788982;30;20221;-73
2023/03/09 02:10:07;;;;;;;19.63;10.17;;;0.60;99.90;;;;;;4788755;30;20196;-71
2023/03/09 02:12:34;;;;;;;17.43;9.93;;;0.60;99.90;;;;;;4788505;30;20634;-70
2023/03/09 02:15:03;;;;;;;20.77;9.90;;;0.70;99.90;;;;;;4788337;30;20627;-70
2023/03/09 02:17:30;;;;;;;17.97;10.07;;;0.70;99.90;;;;;;4788722;30;20235;-70
2023/03/09 02:20:12;;;;;;;19.37;9.87;;;0.70;99.90;;;;;;4788479;30;20217;-71
2023/03/09 02:22:39;;;;;;;18.47;9.83;;;0.70;99.90;;;;;;4788556;30;20675;-72
2023/03/09 02:25:09;;;;;;;17.87;9.83;;;0.70;99.90;;;;;;4788085;29;20207;-71
2023/03/09 02:27:36;;;;;;;18.57;9.83;;;0.70;99.90;;;;;;4789182;30;20281;-72
2023/03/09 02:30:04;;;;;;;17.27;9.73;;;0.70;99.90;;;;;;4788280;30;20208;-73
2023/03/09 02:32:31;;;;;;;19.23;9.53;;;0.70;99.90;;;;;;4788269;30;20215;-73
2023/03/09 02:34:59;;;;;;;19.47;10.13;;;0.80;99.90;;;;;;4789432;29;20277;-73
2023/03/09 02:37:35;;;;;;;19.53;10.13;;;0.80;99.90;;;;;;4789690;30;20668;-73
2023/03/09 02:40:12;;;;;;;19.17;10.17;;;0.70;99.90;;;;;;4787993;30;20240;-73
2023/03/09 02:42:39;;;;;;;18.37;9.73;;;0.80;99.90;;;;;;4788227;30;20214;-71
2023/03/09 02:45:07;;;;;;;17.20;9.37;;;0.80;99.90;;;;;;4789157;30;20198;-71
2023/03/09 02:47:36;;;;;;;21.33;11.00;;;0.70;99.90;;;;;;4789493;29;20247;-72
2023/03/09 02:50:03;;;;;;;18.60;10.13;;;0.70;99.90;;;;;;4789196;30;20196;-72
2023/03/09 02:52:30;;;;;;;17.10;9.80;;;0.80;99.90;;;;;;4788083;30;20215;-72
2023/03/09 02:54:57;;;;;;;18.30;9.80;;;0.80;99.90;;;;;;4787594;30;20238;-72
2023/03/09 02:57:23;;;;;;;18.03;9.53;;;0.70;99.90;;;;;;4787925;30;20261;-71
2023/03/09 02:59:50;;;;;;;21.20;10.50;;;0.70;99.90;;;;;;4781093;30;20242;-72
2023/03/09 03:02:17;;;;;;;20.77;9.97;;;0.80;99.90;;;;;;4789128;30;20214;-72
2023/03/09 03:04:44;;;;;;;19.67;10.17;;;0.80;99.90;;;;;;4802703;29;20666;-72
2023/03/09 03:07:11;;;;;;;17.77;9.90;;;0.70;99.90;;;;;;4787670;30;20239;-71
2023/03/09 03:09:38;;;;;;;19.00;10.43;;;0.70;99.90;;;;;;4787531;30;20203;-72
2023/03/09 03:12:05;;;;;;;20.10;10.03;;;0.70;99.90;;;;;;4788986;30;20205;-72
2023/03/09 03:14:32;;;;;;;20.13;11.30;;;0.60;99.90;;;;;;4802403;29;20579;-72
2023/03/09 03:16:59;;;;;;;22.10;11.10;;;0.60;99.90;;;;;;4787548;30;20204;-71
2023/03/09 03:19:26;;;;;;;21.57;11.30;;;0.60;99.90;;;;;;4788833;30;20197;-71
2023/03/09 03:21:53;;;;;;;23.37;11.87;;;0.60;99.90;;;;;;4787629;30;20196;-71
2023/03/09 03:24:20;;;;;;;23.13;11.70;;;0.60;99.90;;;;;;4787169;30;20293;-74
2023/03/09 03:26:46;;;;;;;22.47;12.07;;;0.60;99.90;;;;;;4788656;30;20271;-74
2023/03/09 03:29:13;;;;;;;23.40;12.07;;;0.70;99.90;;;;;;4787129;30;20204;-74
2023/03/09 03:31:40;;;;;;;27.13;13.20;;;0.60;99.90;;;;;;4787592;30;20308;-74
2023/03/09 03:34:07;;;;;;;28.00;13.73;;;0.60;99.90;;;;;;4787245;30;20200;-74
2023/03/09 03:36:34;;;;;;;25.63;12.87;;;0.60;99.90;;;;;;4787909;29;20205;-74
2023/03/09 03:39:03;;;;;;;26.07;13.43;;;0.60;99.90;;;;;;4787300;30;20246;-75
2023/03/09 03:41:30;;;;;;;27.90;13.83;;;0.50;99.90;;;;;;4786850;30;20249;-75
2023/03/09 03:43:57;;;;;;;27.87;13.13;;;0.60;99.90;;;;;;4786904;30;20306;-74
2023/03/09 03:46:24;;;;;;;28.33;13.27;;;0.50;99.90;;;;;;4788306;30;20203;-75
2023/03/09 03:48:51;;;;;;;28.07;13.73;;;0.60;99.90;;;;;;4787136;30;20254;-75
2023/03/09 03:51:18;;;;;;;27.23;13.23;;;0.60;99.90;;;;;;4786836;30;20204;-75
2023/03/09 03:53:45;;;;;;;28.70;13.90;;;0.60;99.90;;;;;;4786646;30;20241;-74
2023/03/09 03:56:12;;;;;;;28.77;13.40;;;0.60;99.90;;;;;;4786638;30;20682;-75
2023/03/09 03:58:38;;;;;;;27.13;13.63;;;0.60;99.90;;;;;;4786245;30;20267;-75
2023/03/09 04:01:06;;;;;;;29.13;13.20;;;0.70;99.90;;;;;;4787894;30;20192;-75
2023/03/09 04:03:33;;;;;;;27.07;13.47;;;0.70;99.90;;;;;;4786477;30;20204;-75
2023/03/09 04:06:02;;;;;;;27.97;13.67;;;0.70;99.90;;;;;;4786405;30;20205;-74
2023/03/09 04:08:30;;;;;;;25.73;12.67;;;0.70;99.90;;;;;;4786524;30;20228;-71
2023/03/09 04:10:57;;;;;;;25.77;13.33;;;0.60;99.90;;;;;;4786532;30;20203;-71
2023/03/09 04:13:25;;;;;;;27.27;12.60;;;0.70;99.90;;;;;;4786348;30;20703;-71
2023/03/09 04:15:52;;;;;;;26.07;12.67;;;0.70;99.90;;;;;;4786224;30;20216;-73
2023/03/09 04:18:19;;;;;;;23.13;12.10;;;0.70;99.90;;;;;;4786274;30;20608;-71
2023/03/09 04:20:45;;;;;;;23.17;12.27;;;0.60;99.90;;;;;;4786398;30;20212;-73
2023/03/09 04:23:13;;;;;;;25.07;12.10;;;0.60;99.90;;;;;;4771314;30;20212;-72
2023/03/09 04:25:40;;;;;;;24.77;12.13;;;0.60;99.90;;;;;;4786063;30;20199;-72
2023/03/09 04:28:07;;;;;;;22.17;11.83;;;0.60;99.90;;;;;;4787284;30;20244;-73
2023/03/09 04:30:34;;;;;;;20.60;11.30;;;0.60;99.90;;;;;;4786625;30;20628;-73
2023/03/09 04:33:00;;;;;;;22.53;11.77;;;0.60;99.90;;;;;;4786521;30;20196;-73
2023/03/09 04:35:27;;;;;;;22.33;11.03;;;0.60;99.90;;;;;;4787133;30;20192;-72
2023/03/09 04:37:54;;;;;;;22.13;11.17;;;0.60;99.90;;;;;;4786003;30;20214;-72
2023/03/09 04:40:21;;;;;;;23.70;11.27;;;0.60;99.90;;;;;;4786481;30;20215;-72
2023/03/09 04:42:48;;;;;;;22.67;11.07;;;0.60;99.90;;;;;;4786182;30;20204;-72
2023/03/09 04:45:15;;;;;;;20.37;11.00;;;0.60;99.90;;;;;;4786020;30;20628;-74
2023/03/09 04:47:41;;;;;;;21.90;11.00;;;0.50;99.90;;;;;;4786283;30;20224;-75
2023/03/09 04:50:09;;;;;;;19.40;10.17;;;0.40;99.90;;;;;;4787140;30;20570;-73
2023/03/09 04:52:36;;;;;;;20.57;9.77;;;0.40;99.90;;;;;;4787031;30;20230;-72
2023/03/09 04:55:04;;;;;;;19.73;10.50;;;0.40;99.90;;;;;;4785889;30;20565;-74
2023/03/09 04:57:30;;;;;;;17.67;9.60;;;0.40;99.90;;;;;;4787106;30;20224;-72
2023/03/09 04:59:57;;;;;;;17.43;9.33;;;0.40;99.90;;;;;;4786956;30;20207;-71
2023/03/09 05:02:25;;;;;;;18.20;9.27;;;0.40;99.90;;;;;;4785758;30;20212;-73
2023/03/09 05:04:52;;;;;;;16.83;8.87;;;0.40;99.90;;;;;;4785819;30;20671;-73
2023/03/09 05:07:19;;;;;;;16.27;8.87;;;0.40;99.90;;;;;;4785367;30;20223;-75
2023/03/09 05:09:47;;;;;;;16.67;8.70;;;0.40;99.90;;;;;;4785761;30;20223;-73
2023/03/09 05:12:14;;;;;;;15.33;8.30;;;0.30;99.90;;;;;;4785675;30;20212;-75
2023/03/09 05:14:41;;;;;;;16.43;9.03;;;0.30;99.90;;;;;;4785495;30;20561;-73
2023/03/09 05:17:08;;;;;;;18.17;8.57;;;0.30;99.90;;;;;;4785563;30;20217;-74
2023/03/09 05:19:36;;;;;;;17.27;8.60;;;0.30;99.90;;;;;;4785714;30;20201;-74
2023/03/09 05:22:04;;;;;;;16.27;8.07;;;0.30;99.90;;;;;;4785508;30;20199;-74
2023/03/09 05:24:32;;;;;;;15.83;7.73;;;0.40;99.90;;;;;;4785876;30;20215;-74
2023/03/09 05:26:59;;;;;;;14.67;8.30;;;0.30;99.90;;;;;;4786630;30;20226;-74
2023/03/09 05:29:26;;;;;;;17.37;8.93;;;0.30;99.90;;;;;;4786593;29;20588;-75
2023/03/09 05:31:53;;;;;;;15.60;8.27;;;0.40;99.90;;;;;;4785753;30;20197;-75
2023/03/09 05:34:20;;;;;;;15.80;8.10;;;0.30;99.90;;;;;;4785496;30;20674;-72
2023/03/09 05:36:46;;;;;;;18.80;9.00;;;0.30;99.90;;;;;;4800762;29;20219;-73
2023/03/09 05:39:13;;;;;;;17.03;8.50;;;0.30;99.90;;;;;;4785472;30;20201;-73
2023/03/09 05:41:40;;;;;;;16.23;8.17;;;0.30;99.90;;;;;;4785444;30;20212;-72
2023/03/09 05:44:07;;;;;;;16.37;8.70;;;0.30;99.90;;;;;;4800374;29;20219;-72
2023/03/09 05:46:34;;;;;;;17.23;8.23;;;0.40;99.90;;;;;;4785391;30;20584;-73
2023/03/09 05:49:01;;;;;;;15.67;8.60;;;0.40;99.90;;;;;;4785368;30;20326;-74
2023/03/09 05:51:29;;;;;;;14.90;8.67;;;0.40;99.90;;;;;;4786117;29;20200;-74
2023/03/09 05:53:56;;;;;;;16.53;8.53;;;0.40;99.90;;;;;;4786697;30;20210;-73
2023/03/09 05:56:23;;;;;;;15.23;8.37;;;0.40;99.90;;;;;;4785338;30;20207;-72
2023/03/09 05:58:51;;;;;;;18.40;8.90;;;0.40;99.90;;;;;;4786105;29;20243;-73
2023/03/09 06:01:23;;;;;;;18.10;9.30;;;0.40;99.90;;;;;;4803644;29;20266;-73
2023/03/09 06:03:50;;;;;;;17.40;8.67;;;0.30;99.90;;;;;;4788923;30;20204;-72
2023/03/09 06:06:18;;;;;;;15.93;8.83;;;0.30;99.90;;;;;;4789015;29;20204;-73
2023/03/09 06:08:45;;;;;;;17.73;8.77;;;0.40;99.90;;;;;;4788831;30;20227;-73
2023/03/09 06:11:12;;;;;;;19.90;9.67;;;0.50;99.90;;;;;;4796843;29;20215;-73
2023/03/09 06:13:38;;;;;;;21.23;9.33;;;0.50;99.90;;;;;;4806400;29;20215;-74
2023/03/09 06:16:07;;;;;;;17.97;9.67;;;0.50;99.90;;;;;;4807541;29;20210;-73
2023/03/09 06:18:34;;;;;;;17.97;9.33;;;0.50;99.90;;;;;;4806218;29;20306;-73
2023/03/09 06:21:04;;;;;;;17.73;9.73;;;0.50;99.90;;;;;;4792189;29;20200;-72
2023/03/09 06:23:35;;;;;;;16.40;8.90;;;0.50;99.90;;;;;;4794284;29;20199;-73
2023/03/09 06:26:03;;;;;;;20.90;9.80;;;0.50;99.90;;;;;;4793201;29;20216;-73
2023/03/09 06:28:30;;;;;;;18.53;10.37;;;0.50;99.90;;;;;;4773163;30;20240;-72
2023/03/09 06:30:57;;;;;;;20.50;10.10;;;0.50;99.90;;;;;;4790855;29;20617;-73
2023/03/09 06:33:24;;;;;;;17.70;10.13;;;0.50;99.90;;;;;;4806036;29;20218;-72
2023/03/09 06:35:53;;;;;;;19.67;10.77;;;0.50;99.90;;;;;;4788265;29;20295;-72
2023/03/09 06:38:32;;;;;;;19.20;10.33;;;0.60;99.90;;;;;;4788249;30;20208;-74
2023/03/09 06:41:00;;;;;;;18.93;10.30;;;0.60;99.90;;;;;;4789383;30;20253;-74
2023/03/09 06:43:26;;;;;;;18.47;10.20;;;0.60;99.90;;;;;;4787850;30;20226;-71
2023/03/09 06:45:53;;;;;;;19.37;10.93;;;0.70;99.90;;;;;;4787689;30;20205;-71
2023/03/09 06:48:21;;;;;;;22.53;11.10;;;0.70;99.90;;;;;;4788005;30;20234;-73
2023/03/09 06:50:51;;;;;;;18.40;10.53;;;0.70;99.90;;;;;;4787937;30;20212;-73
2023/03/09 06:53:18;;;;;;;21.03;10.90;;;0.70;99.90;;;;;;4788758;29;20208;-72
2023/03/09 06:55:45;;;;;;;23.67;11.60;;;0.70;99.90;;;;;;4792213;29;20246;-71
2023/03/09 06:58:12;;;;;;;20.37;11.40;;;0.80;99.90;;;;;;4787680;30;20244;-73
2023/03/09 07:00:40;;;;;;;19.97;10.80;;;0.70;99.90;;;;;;4787532;30;20313;-73
2023/03/09 07:03:13;;;;;;;21.13;11.10;;;0.70;99.90;;;;;;4795814;29;20294;-73
2023/03/09 07:05:44;;;;;;;18.83;11.10;;;0.80;99.90;;;;;;4788215;29;20200;-71
2023/03/09 07:08:12;;;;;;;22.57;11.53;;;0.80;99.90;;;;;;4795748;29;20234;-72
2023/03/09 07:10:38;;;;;;;21.77;11.30;;;0.80;99.90;;;;;;4797161;29;20208;-73
2023/03/09 07:13:10;;;;;;;23.70;10.53;;;0.80;99.90;;;;;;4806898;29;20202;-71
2023/03/09 07:15:38;;;;;;;22.93;10.70;;;0.80;99.90;;;;;;4799726;29;20199;-72
2023/03/09 07:18:05;;;;;;;20.50;11.07;;;0.80;99.90;;;;;;4787357;29;20216;-71
2023/03/09 07:20:32;;;;;;;20.00;10.37;;;0.80;99.90;;;;;;4799065;29;20701;-70
2023/03/09 07:23:02;;;;;;;20.93;10.93;;;0.80;99.90;;;;;;4802398;29;20677;-73
2023/03/09 07:25:29;;;;;;;21.53;10.60;;;0.70;99.90;;;;;;4805230;29;20659;-72
2023/03/09 07:27:56;;;;;;;19.40;10.83;;;0.70;99.90;;;;;;4806140;29;20318;-72
2023/03/09 07:30:22;;;;;;;19.63;10.63;;;0.70;99.90;;;;;;4787492;29;20335;-73
2023/03/09 07:32:49;;;;;;;20.37;10.30;;;0.80;99.90;;;;;;4787091;30;20204;-72
2023/03/09 07:35:16;;;;;;;18.60;10.33;;;0.80;99.90;;;;;;4788325;30;20440;-72
2023/03/09 07:37:46;;;;;;;21.63;10.80;;;0.90;99.90;;;;;;4788296;30;20250;-74
2023/03/09 07:40:13;;;;;;;20.50;10.43;;;0.90;99.90;;;;;;4787310;30;20204;-73
2023/03/09 07:42:40;;;;;;;20.03;10.70;;;0.90;99.90;;;;;;4790537;29;20344;-73
2023/03/09 07:45:07;;;;;;;20.73;11.90;;;0.90;99.90;;;;;;4793580;29;20215;-69
2023/03/09 07:47:35;;;;;;;22.47;11.23;;;1.00;99.90;;;;;;4792373;29;20226;-71
2023/03/09 07:50:03;;;;;;;19.67;10.27;;;0.90;99.90;;;;;;4786919;30;20248;-73
2023/03/09 07:52:32;;;;;;;20.43;10.97;;;0.90;99.90;;;;;;4787243;29;20208;-74
2023/03/09 07:55:00;;;;;;;18.53;10.27;;;1.10;99.90;;;;;;4804849;29;20214;-72
2023/03/09 07:57:34;;;;;;;18.47;10.60;;;1.10;99.90;;;;;;4805024;29;20208;-72
2023/03/09 08:00:01;;;;;;;19.30;9.87;;;1.10;99.90;;;;;;4804709;29;20203;-71
2023/03/09 08:02:28;;;;;;;18.60;10.57;;;1.10;99.90;;;;;;4806058;29;20200;-74
2023/03/09 08:04:55;;;;;;;19.80;10.20;;;1.20;99.90;;;;;;4798164;29;20219;-72
2023/03/09 08:07:22;;;;;;;17.67;10.00;;;1.20;99.90;;;;;;4787967;29;20219;-73
2023/03/09 08:09:49;;;;;;;17.93;10.43;;;1.20;99.90;;;;;;4797625;29;20204;-74
2023/03/09 08:12:15;;;;;;;18.30;10.30;;;1.20;99.90;;;;;;4793450;29;20554;-75
2023/03/09 08:14:42;;;;;;;19.13;10.23;;;1.20;99.90;;;;;;4797750;29;20207;-72
2023/03/09 08:17:09;;;;;;;18.20;10.33;;;1.20;99.90;;;;;;4806205;29;20297;-81
2023/03/09 08:19:36;;;;;;;16.73;9.67;;;1.30;99.90;;;;;;4799605;29;20199;-77
2023/03/09 08:22:03;;;;;;;16.87;9.40;;;1.30;99.90;;;;;;4793960;29;20200;-76
2023/03/09 08:24:30;;;;;;;17.47;8.87;;;1.20;99.90;;;;;;4786825;30;20214;-76
2023/03/09 08:26:57;;;;;;;16.00;8.93;;;1.20;99.90;;;;;;4786644;30;20726;-77
2023/03/09 08:29:27;;;;;;;17.37;9.53;;;1.20;99.90;;;;;;4786740;30;20227;-78
2023/03/09 08:31:53;;;;;;;15.60;9.37;;;1.20;99.90;;;;;;4786953;29;20306;-77
2023/03/09 08:34:20;;;;;;;16.87;9.67;;;1.30;99.90;;;;;;4793136;29;20195;-76
2023/03/09 08:36:47;;;;;;;15.77;9.67;;;1.30;99.90;;;;;;4786271;29;20239;-76
2023/03/09 08:39:14;;;;;;;16.97;10.07;;;1.40;99.90;;;;;;4787849;30;20287;-77
2023/03/09 08:41:41;;;;;;;15.77;9.83;;;1.50;99.90;;;;;;4786379;30;20205;-77
2023/03/09 08:44:08;;;;;;;18.83;10.23;;;1.50;99.90;;;;;;4786406;30;20570;-77
2023/03/09 08:46:35;;;;;;;18.90;9.60;;;1.40;99.90;;;;;;4787838;30;20282;-76
2023/03/09 08:49:02;;;;;;;16.30;9.53;;;1.50;99.90;;;;;;4787614;30;20228;-70
2023/03/09 08:51:29;;;;;;;18.83;9.47;;;1.50;99.90;;;;;;4787558;30;20200;-77
2023/03/09 08:53:56;;;;;;;15.90;9.87;;;1.50;99.90;;;;;;4787588;30;20204;-76
2023/03/09 08:56:23;;;;;;;17.50;9.17;;;1.60;99.90;;;;;;4787172;30;20209;-76
2023/03/09 08:58:49;;;;;;;15.83;9.67;;;1.60;99.90;;;;;;4786083;30;20246;-81
2023/03/09 09:01:17;;;;;;;16.03;9.57;;;1.80;99.90;;;;;;4787444;30;20555;-74
2023/03/09 09:03:44;;;;;;;15.37;9.33;;;1.90;99.90;;;;;;4786327;30;20216;-71
2023/03/09 09:06:13;;;;;;;17.03;9.20;;;1.80;99.90;;;;;;4786222;30;20210;-71
2023/03/09 09:08:41;;;;;;;15.40;9.07;;;1.60;99.90;;;;;;4786041;30;20630;-74
2023/03/09 09:11:10;;;;;;;16.70;9.43;;;1.60;99.90;;;;;;4787485;30;20223;-73
2023/03/09 09:13:37;;;;;;;14.27;9.20;;;1.80;99.90;;;;;;4785928;30;20640;-74
2023/03/09 09:16:08;;;;;;;13.23;8.33;;;1.80;99.90;;;;;;4787239;30;20210;-71
2023/03/09 09:18:38;;;;;;;13.90;8.10;;;1.90;99.90;;;;;;4786261;30;20247;-71
2023/03/09 09:21:11;;;;;;;14.90;7.63;;;1.90;99.90;;;;;;4785999;30;20219;-74
2023/03/09 09:23:39;;;;;;;14.00;8.10;;;1.90;99.90;;;;;;4771035;30;20671;-73
2023/03/09 09:26:07;;;;;;;12.27;7.67;;;2.00;99.90;;;;;;4786052;30;20224;-71
2023/03/09 09:28:34;;;;;;;12.73;7.73;;;2.00;99.90;;;;;;4785492;30;20240;-72
2023/03/09 09:31:03;;;;;;;12.57;7.73;;;2.00;99.90;;;;;;4785427;30;20212;-71
2023/03/09 09:33:32;;;;;;;15.63;8.00;;;1.90;99.90;;;;;;4786309;29;20684;-71
2023/03/09 09:36:05;;;;;;;13.37;7.63;;;2.00;99.90;;;;;;4789089;30;20674;-73
2023/03/09 09:38:33;;;;;;;15.43;7.63;;;1.80;99.90;;;;;;4788950;30;20215;-72
2023/03/09 09:41:07;;;;;;;11.83;7.47;;;1.70;99.90;;;;;;4789417;30;20711;-79
2023/03/09 09:43:34;;;;;;;13.73;7.13;;;1.70;99.90;;;;;;4788935;30;20678;-77
2023/03/09 09:46:03;;;;;;;11.87;7.03;;;1.60;99.90;;;;;;4789236;30;20208;-74
2023/03/09 09:48:32;;;;;;;13.33;7.23;;;1.50;99.90;;;;;;4774294;30;20269;-80
2023/03/09 09:51:05;;;;;;;16.33;6.97;;;1.60;99.90;;;;;;4789163;30;20212;-78
2023/03/09 09:54:11;;;;;;;12.77;7.83;;;1.60;99.90;;;;;;4789096;30;20211;-74
2023/03/09 09:56:50;;;;;;;11.20;6.70;;;1.70;99.90;;;;;;4788755;30;20208;-74
2023/03/09 09:59:34;;;;;;;12.70;7.27;;;1.50;99.90;;;;;;4789510;30;20595;-76
2023/03/09 10:02:10;;;;;;;12.63;7.40;;;1.60;99.90;;;;;;4790128;30;20272;-73
2023/03/09 10:04:41;;;;;;;12.17;6.87;;;1.60;99.90;;;;;;4788892;30;20223;-75
2023/03/09 10:07:16;;;;;;;11.63;6.83;;;1.60;99.90;;;;;;4788637;30;20204;-78
2023/03/09 10:09:48;;;;;;;11.73;6.60;;;1.60;99.90;;;;;;4789367;30;20276;-72
2023/03/09 10:12:19;;;;;;;9.93;6.50;;;1.60;99.90;;;;;;4789046;30;20654;-77
2023/03/09 10:14:58;;;;;;;11.63;7.00;;;1.60;99.90;;;;;;4789680;30;20243;-76
2023/03/09 10:17:38;;;;;;;10.80;6.10;;;1.60;99.90;;;;;;4789824;30;20577;-78
2023/03/09 10:20:19;;;;;;;10.73;6.43;;;1.70;99.90;;;;;;4788479;30;20297;-73
2023/03/09 10:22:49;;;;;;;12.50;7.20;;;1.70;99.90;;;;;;4788390;30;20226;-72
2023/03/09 10:25:19;;;;;;;9.80;6.53;;;1.70;99.90;;;;;;4789649;30;20224;-71
2023/03/09 10:27:57;;;;;;;11.87;6.90;;;1.70;99.90;;;;;;4788366;30;20301;-73
2023/03/09 10:30:48;;;;;;;13.57;6.67;;;1.70;99.90;;;;;;4788114;30;20322;-76
2023/03/09 10:33:21;;;;;;;10.23;6.07;;;1.60;99.90;;;;;;4789840;30;20208;-73
2023/03/09 10:35:57;;;;;;;10.50;6.70;;;1.60;99.90;;;;;;4797983;29;20377;-72
2023/03/09 10:38:38;;;;;;;13.30;7.00;;;1.60;99.90;;;;;;4800400;29;20608;-74
2023/03/09 10:41:20;;;;;;;11.40;7.27;;;1.70;99.90;;;;;;4805302;29;20230;-73
2023/03/09 10:43:47;;;;;;;10.70;6.67;;;1.70;99.90;;;;;;4796280;29;20629;-75
2023/03/09 10:46:16;;;;;;;10.63;6.27;;;1.70;99.90;;;;;;4788402;29;20228;-73
2023/03/09 10:48:45;;;;;;;10.47;6.50;;;1.60;99.90;;;;;;4787821;29;20225;-77
2023/03/09 10:51:26;;;;;;;43.37;11.80;;;1.70;99.90;;;;;;4788196;29;20215;-71
2023/03/09 10:53:54;;;;;;;45.27;11.97;;;1.80;99.90;;;;;;4788307;30;20223;-75
2023/03/09 10:56:33;;;;;;;10.43;6.40;;;1.90;99.90;;;;;;4790953;29;20659;-79
2023/03/09 10:59:11;;;;;;;13.37;6.73;;;1.90;99.90;;;;;;4792631;29;21285;-79
2023/03/09 11:01:44;;;;;;;14.87;6.97;;;1.90;99.90;;;;;;4795191;29;20282;-78
2023/03/09 11:04:26;;;;;;;11.53;6.50;;;1.80;99.90;;;;;;4793994;29;20207;-85
2023/03/09 11:07:22;;;;;;;11.03;6.40;;;1.90;99.90;;;;;;4801551;29;20228;-85
2023/03/09 11:12:50;;;;;;;10.83;6.23;;;1.60;99.90;;;;;;4749330;30;20576;-82
2023/03/09 11:15:17;;;;;;;9.80;5.90;;;1.70;99.90;;;;;;4740168;30;20331;-85
2023/03/09 11:17:46;;;;;;;6.90;4.70;;;1.60;99.90;;;;;;4734268;30;20219;-84
2023/03/09 11:20:23;;;;;;;8.47;5.30;;;1.60;99.90;;;;;;4749038;30;20262;-87
2023/03/09 11:23:18;;;;;;;11.90;6.47;;;1.60;99.90;;;;;;4741611;30;20729;-85
2023/03/09 11:26:03;;;;;;;10.37;6.10;;;1.60;99.90;;;;;;4733796;30;20264;-77
2023/03/09 11:28:43;;;;;;;11.17;6.23;;;1.70;99.90;;;;;;4730989;30;20754;-83
2023/03/09 11:31:44;;;;;;;12.50;6.70;;;1.80;99.90;;;;;;4737255;30;20303;-82
2023/03/09 11:34:21;;;;;;;11.32;6.68;;;2.10;99.90;;;;;;4719595;30;20468;-77
2023/03/09 11:36:55;;;;;;;11.03;5.33;;;2.20;99.90;;;;;;4734351;30;20218;-72
2023/03/09 11:39:35;;;;;;;10.97;5.10;;;2.20;99.90;;;;;;4730637;30;20301;-71
2023/03/09 11:42:09;;;;;;;8.80;5.07;;;2.20;99.90;;;;;;4731108;30;20289;-75
2023/03/09 11:44:40;;;;;;;8.40;5.47;;;2.20;99.90;;;;;;4719623;30;20327;-72
2023/03/09 11:47:34;;;;;;;8.43;5.07;;;2.10;99.90;;;;;;4727768;30;20232;-69
2023/03/09 11:50:09;;;;;;;8.87;5.03;;;2.00;99.90;;;;;;4711981;30;20281;-71
2023/03/09 11:52:44;;;;;;;8.87;5.27;;;1.70;99.90;;;;;;4726618;30;20217;-69
2023/03/09 11:55:15;;;;;;;7.83;5.27;;;1.70;99.90;;;;;;4731084;30;20334;-69
2023/03/09 11:57:49;;;;;;;7.57;4.70;;;1.80;99.90;;;;;;4710529;30;20226;-78
2023/03/09 12:00:20;;;;;;;11.70;4.87;;;1.70;99.90;;;;;;4858086;24;20273;-78
2023/03/09 12:03:03;;;;;;;9.07;5.03;;;1.60;99.90;;;;;;4807898;29;20221;-76
2023/03/09 12:05:37;;;;;;;8.90;5.27;;;1.60;99.90;;;;;;4793329;29;20602;-69
2023/03/09 12:08:16;;;;;;;8.10;5.10;;;1.60;99.90;;;;;;4806383;29;20216;-76
2023/03/09 12:10:53;;;;;;;8.73;5.63;;;1.70;99.90;;;;;;4811183;29;20256;-81
2023/03/09 12:13:52;;;;;;;10.80;5.50;;;1.70;99.90;;;;;;4777250;29;20240;-82
2023/03/09 12:16:31;;;;;;;8.03;5.30;;;1.70;99.90;;;;;;4772642;29;20268;-77
2023/03/09 12:19:14;;;;;;;12.50;5.83;;;1.60;99.90;;;;;;4790235;29;20288;-73
2023/03/09 12:22:00;;;;;;;11.57;5.90;;;1.60;99.90;;;;;;4790253;29;20595;-75
2023/03/09 12:24:44;;;;;;;12.10;6.17;;;1.50;99.90;;;;;;4789734;29;20217;-77
2023/03/09 12:27:20;;;;;;;12.20;6.17;;;1.50;99.90;;;;;;4789940;29;20658;-75
2023/03/09 12:30:07;;;;;;;9.33;5.83;;;1.50;99.90;;;;;;4774778;29;20245;-73
2023/03/09 12:32:38;;;;;;;8.83;5.70;;;1.30;99.90;;;;;;4789554;29;20237;-74
2023/03/09 12:35:43;;;;;;;11.20;5.67;;;1.30;99.90;;;;;;4805445;29;20207;-74
2023/03/09 12:38:17;;;;;;;11.80;5.90;;;1.20;99.90;;;;;;4778758;29;20619;-75
2023/03/09 12:40:44;;;;;;;11.00;6.10;;;1.10;99.90;;;;;;4789181;29;20218;-75
2023/03/09 12:43:14;;;;;;;11.43;5.93;;;1.20;99.90;;;;;;4774251;29;20211;-74
2023/03/09 12:45:43;;;;;;;14.37;6.50;;;1.20;99.90;;;;;;4789139;29;20747;-73
2023/03/09 12:48:12;;;;;;;10.97;6.20;;;1.10;99.90;;;;;;4789065;29;20689;-75
2023/03/09 12:50:42;;;;;;;11.67;6.20;;;1.10;99.90;;;;;;4789007;29;20292;-73
2023/03/09 12:53:16;;;;;;;11.13;6.47;;;1.10;99.90;;;;;;4788851;29;20584;-72
2023/03/09 12:55:59;;;;;;;15.47;6.87;;;1.10;99.90;;;;;;4789240;29;20674;-73
2023/03/09 12:58:26;;;;;;;12.37;6.83;;;1.10;99.90;;;;;;4805809;29;20199;-73
2023/03/09 13:01:10;;;;;;;11.73;6.60;;;1.10;99.90;;;;;;4788773;29;20238;-74